PWSweather.com
Personal Weather Stations
Station Observations
LOBIOS
Galicia, LobiosES

GaliciaLobiosES

Lat: 41.895, Lon: -8.091667

Elevation: 1597

Station Type: Automática/Davis Vantage Pro2 Plus

www.meteolobios.es

High Low Average
Temperature 90.3°F32.4°C 58.2°F14.6°C 72.9°F22.7°C
Dew Point 64.1°F17.8°C 46.1°F7.8°C 58.4°F14.7°C
Winds 12.7 mph 20.4 kmh Calm Calm 4.0 mph ENE6.4 kmh ENE
Wind Gusts 19.6 mph31.5 kmh -- 6.0 mph9.7 kmh
Humidity 91% 23% 65%
Pressure 30.25 in1024.4 mb 30.17 in1021.7 mb -
Precipitation 0.00 in0.0 mm - -
Hour Temp Dew Point Humidity Winds Wind Gusts Pressure Precip Precip Rate Daily Precip Total
12:00 AM 67.2°F19.6°C 60.1°F15.6°C 78% Calm Calm -- 30.23 in1023.7 mb - 0.00 in0.0 mm 0.00 in0.0 mm
12:10 AM 67.0°F19.4°C 59.9°F15.5°C 78% Calm Calm -- 30.23 in1023.7 mb - 0.00 in0.0 mm 0.00 in0.0 mm
12:20 AM 66.8°F19.3°C 59.7°F15.4°C 78% Calm Calm -- 30.23 in1023.7 mb - 0.00 in0.0 mm 0.00 in0.0 mm
12:30 AM 66.6°F19.2°C 59.9°F15.5°C 79% Calm Calm -- 30.23 in1023.7 mb - 0.00 in0.0 mm 0.00 in0.0 mm
12:40 AM 66.3°F19.1°C 59.6°F15.3°C 79% Calm Calm -- 30.23 in1023.7 mb - 0.00 in0.0 mm 0.00 in0.0 mm
12:50 AM 66.0°F18.9°C 59.3°F15.2°C 79% Calm Calm -- 30.23 in1023.7 mb - 0.00 in0.0 mm 0.00 in0.0 mm
01:00 AM 65.6°F18.7°C 59.3°F15.2°C 80% Calm Calm -- 30.22 in1023.4 mb - 0.00 in0.0 mm 0.00 in0.0 mm
01:10 AM 65.3°F18.5°C 59.3°F15.2°C 81% Calm Calm -- 30.22 in1023.4 mb - 0.00 in0.0 mm 0.00 in0.0 mm
01:20 AM 64.9°F18.3°C 59.6°F15.3°C 83% Calm Calm 1.1 mph1.8 kmh 30.23 in1023.7 mb - 0.00 in0.0 mm 0.00 in0.0 mm
01:30 AM 64.6°F18.1°C 59.7°F15.4°C 84% Calm Calm -- 30.22 in1023.4 mb - 0.00 in0.0 mm 0.00 in0.0 mm
01:40 AM 64.4°F18.0°C 59.5°F15.3°C 84% Calm Calm -- 30.22 in1023.4 mb - 0.00 in0.0 mm 0.00 in0.0 mm
01:50 AM 64.1°F17.8°C 59.2°F15.1°C 84% Calm Calm -- 30.22 in1023.4 mb - 0.00 in0.0 mm 0.00 in0.0 mm
02:00 AM 63.8°F17.7°C 58.9°F14.9°C 84% Calm Calm -- 30.22 in1023.4 mb - 0.00 in0.0 mm 0.00 in0.0 mm
02:10 AM 63.7°F17.6°C 59.1°F15.1°C 85% Calm Calm -- 30.22 in1023.4 mb - 0.00 in0.0 mm 0.00 in0.0 mm
02:20 AM 63.5°F17.5°C 59.2°F15.1°C 86% Calm Calm 1.1 mph1.8 kmh 30.22 in1023.4 mb - 0.00 in0.0 mm 0.00 in0.0 mm
02:30 AM 63.2°F17.3°C 58.9°F14.9°C 86% 1.1 mph NE1.8 kmh NE 2.3 mph3.7 kmh 30.21 in1023.0 mb - 0.00 in0.0 mm 0.00 in0.0 mm
02:40 AM 63.0°F17.2°C 58.4°F14.7°C 85% Calm Calm 1.1 mph1.8 kmh 30.21 in1023.0 mb - 0.00 in0.0 mm 0.00 in0.0 mm
02:50 AM 62.9°F17.2°C 58.6°F14.8°C 86% Calm Calm -- 30.21 in1023.0 mb - 0.00 in0.0 mm 0.00 in0.0 mm
03:00 AM 62.7°F17.1°C 58.5°F14.7°C 86% Calm Calm 1.1 mph1.8 kmh 30.21 in1023.0 mb - 0.00 in0.0 mm 0.00 in0.0 mm
03:10 AM 62.5°F16.9°C 58.3°F14.6°C 86% Calm Calm -- 30.21 in1023.0 mb - 0.00 in0.0 mm 0.00 in0.0 mm
03:20 AM 62.4°F16.9°C 58.2°F14.6°C 86% Calm Calm -- 30.21 in1023.0 mb - 0.00 in0.0 mm 0.00 in0.0 mm
03:30 AM 62.2°F16.8°C 58.3°F14.6°C 87% Calm Calm -- 30.21 in1023.0 mb - 0.00 in0.0 mm 0.00 in0.0 mm
03:40 AM 62.0°F16.7°C 58.1°F14.5°C 87% Calm Calm -- 30.20 in1022.7 mb - 0.00 in0.0 mm 0.00 in0.0 mm
03:50 AM 61.7°F16.5°C 57.8°F14.3°C 87% Calm Calm -- 30.20 in1022.7 mb - 0.00 in0.0 mm 0.00 in0.0 mm
04:00 AM 61.4°F16.3°C 57.5°F14.2°C 87% Calm Calm -- 30.20 in1022.7 mb - 0.00 in0.0 mm 0.00 in0.0 mm
04:10 AM 61.1°F16.2°C 57.2°F14.0°C 87% Calm Calm -- 30.20 in1022.7 mb - 0.00 in0.0 mm 0.00 in0.0 mm
04:20 AM 60.7°F15.9°C 56.8°F13.8°C 87% Calm Calm -- 30.20 in1022.7 mb - 0.00 in0.0 mm 0.00 in0.0 mm
04:30 AM 60.6°F15.9°C 57.0°F13.9°C 88% Calm Calm -- 30.20 in1022.7 mb - 0.00 in0.0 mm 0.00 in0.0 mm
04:40 AM 60.4°F15.8°C 56.8°F13.8°C 88% 1.1 mph NE1.8 kmh NE 3.5 mph5.6 kmh 30.20 in1022.7 mb - 0.00 in0.0 mm 0.00 in0.0 mm
04:50 AM 60.2°F15.7°C 56.6°F13.7°C 88% Calm Calm -- 30.20 in1022.7 mb - 0.00 in0.0 mm 0.00 in0.0 mm
05:00 AM 60.1°F15.6°C 56.5°F13.6°C 88% Calm Calm 2.3 mph3.7 kmh 30.20 in1022.7 mb - 0.00 in0.0 mm 0.00 in0.0 mm
05:10 AM 60.0°F15.6°C 56.4°F13.6°C 88% 1.1 mph NE1.8 kmh NE 2.3 mph3.7 kmh 30.20 in1022.7 mb - 0.00 in0.0 mm 0.00 in0.0 mm
05:20 AM 59.8°F15.4°C 56.6°F13.7°C 89% 1.1 mph NE1.8 kmh NE 3.5 mph5.6 kmh 30.21 in1023.0 mb - 0.00 in0.0 mm 0.00 in0.0 mm
05:30 AM 59.7°F15.4°C 56.4°F13.6°C 89% 2.3 mph NE3.7 kmh NE 3.5 mph5.6 kmh 30.20 in1022.7 mb - 0.00 in0.0 mm 0.00 in0.0 mm
05:40 AM 59.5°F15.3°C 56.3°F13.5°C 89% 2.3 mph NE3.7 kmh NE 3.5 mph5.6 kmh 30.21 in1023.0 mb - 0.00 in0.0 mm 0.00 in0.0 mm
05:50 AM 59.3°F15.2°C 56.1°F13.4°C 89% 4.6 mph NE7.4 kmh NE 8.1 mph13.0 kmh 30.21 in1023.0 mb - 0.00 in0.0 mm 0.00 in0.0 mm
06:00 AM 59.2°F15.1°C 56.3°F13.5°C 90% 1.1 mph NE1.8 kmh NE 2.3 mph3.7 kmh 30.21 in1023.0 mb - 0.00 in0.0 mm 0.00 in0.0 mm
06:10 AM 59.1°F15.1°C 56.1°F13.4°C 90% Calm Calm -- 30.21 in1023.0 mb - 0.00 in0.0 mm 0.00 in0.0 mm
06:20 AM 58.9°F14.9°C 56.0°F13.3°C 90% Calm Calm 1.1 mph1.8 kmh 30.21 in1023.0 mb - 0.00 in0.0 mm 0.00 in0.0 mm
06:30 AM 58.7°F14.8°C 55.8°F13.2°C 90% 1.1 mph NE1.8 kmh NE 2.3 mph3.7 kmh 30.21 in1023.0 mb - 0.00 in0.0 mm 0.00 in0.0 mm
06:40 AM 58.6°F14.8°C 55.7°F13.2°C 90% 1.1 mph NE1.8 kmh NE 1.1 mph1.8 kmh 30.21 in1023.0 mb - 0.00 in0.0 mm 0.00 in0.0 mm
06:50 AM 58.5°F14.7°C 55.9°F13.3°C 91% 3.5 mph NE5.6 kmh NE 3.5 mph5.6 kmh 30.21 in1023.0 mb - 0.00 in0.0 mm 0.00 in0.0 mm
07:00 AM 58.6°F14.8°C 56.0°F13.3°C 91% Calm Calm -- 30.21 in1023.0 mb - 0.00 in0.0 mm 0.00 in0.0 mm
07:10 AM 58.5°F14.7°C 55.9°F13.3°C 91% Calm Calm -- 30.22 in1023.4 mb - 0.00 in0.0 mm 0.00 in0.0 mm
07:20 AM 58.3°F14.6°C 55.7°F13.2°C 91% Calm Calm -- 30.22 in1023.4 mb - 0.00 in0.0 mm 0.00 in0.0 mm
07:30 AM 58.2°F14.6°C 55.6°F13.1°C 91% 1.1 mph NE1.8 kmh NE 3.5 mph5.6 kmh 30.22 in1023.4 mb - 0.00 in0.0 mm 0.00 in0.0 mm
07:40 AM 58.2°F14.6°C 55.6°F13.1°C 91% Calm Calm -- 30.22 in1023.4 mb - 0.00 in0.0 mm 0.00 in0.0 mm
07:50 AM 58.2°F14.6°C 55.6°F13.1°C 91% 1.1 mph NE1.8 kmh NE 2.3 mph3.7 kmh 30.23 in1023.7 mb - 0.00 in0.0 mm 0.00 in0.0 mm
08:00 AM 58.3°F14.6°C 55.7°F13.2°C 91% 2.3 mph NE3.7 kmh NE 4.6 mph7.4 kmh 30.23 in1023.7 mb - 0.00 in0.0 mm 0.00 in0.0 mm
08:10 AM 58.6°F14.8°C 56.0°F13.3°C 91% 1.1 mph NE1.8 kmh NE 3.5 mph5.6 kmh 30.23 in1023.7 mb - 0.00 in0.0 mm 0.00 in0.0 mm
08:20 AM 59.1°F15.1°C 56.2°F13.4°C 90% 1.1 mph NE1.8 kmh NE 2.3 mph3.7 kmh 30.23 in1023.7 mb - 0.00 in0.0 mm 0.00 in0.0 mm
08:30 AM 60.0°F15.6°C 56.8°F13.8°C 89% 1.1 mph NE1.8 kmh NE 3.5 mph5.6 kmh 30.23 in1023.7 mb - 0.00 in0.0 mm 0.00 in0.0 mm
08:40 AM 61.4°F16.3°C 57.5°F14.2°C 87% Calm Calm 2.3 mph3.7 kmh 30.23 in1023.7 mb - 0.00 in0.0 mm 0.00 in0.0 mm
08:50 AM 62.3°F16.8°C 57.1°F13.9°C 83% 1.1 mph NE1.8 kmh NE 2.3 mph3.7 kmh 30.23 in1023.7 mb - 0.00 in0.0 mm 0.00 in0.0 mm
09:00 AM 63.1°F17.3°C 57.1°F13.9°C 81% 1.1 mph NE1.8 kmh NE 2.3 mph3.7 kmh 30.23 in1023.7 mb - 0.00 in0.0 mm 0.00 in0.0 mm
09:10 AM 64.1°F17.8°C 57.8°F14.3°C 80% 1.1 mph NE1.8 kmh NE 2.3 mph3.7 kmh 30.24 in1024.0 mb - 0.00 in0.0 mm 0.00 in0.0 mm
09:20 AM 65.4°F18.6°C 58.7°F14.8°C 79% Calm Calm -- 30.24 in1024.0 mb - 0.00 in0.0 mm 0.00 in0.0 mm
09:30 AM 66.4°F19.1°C 58.6°F14.8°C 76% Calm Calm -- 30.23 in1023.7 mb - 0.00 in0.0 mm 0.00 in0.0 mm
09:40 AM 67.3°F19.6°C 59.1°F15.1°C 75% Calm Calm -- 30.24 in1024.0 mb - 0.00 in0.0 mm 0.00 in0.0 mm
09:50 AM 68.6°F20.3°C 60.0°F15.6°C 74% Calm Calm 1.1 mph1.8 kmh 30.24 in1024.0 mb - 0.00 in0.0 mm 0.00 in0.0 mm
10:00 AM 69.8°F21.0°C 58.4°F14.7°C 67% 1.1 mph NE1.8 kmh NE 3.5 mph5.6 kmh 30.24 in1024.0 mb - 0.00 in0.0 mm 0.00 in0.0 mm
10:10 AM 70.8°F21.6°C 60.5°F15.8°C 70% 2.3 mph NE3.7 kmh NE 3.5 mph5.6 kmh 30.24 in1024.0 mb - 0.00 in0.0 mm 0.00 in0.0 mm
10:20 AM 71.8°F22.1°C 60.7°F15.9°C 68% Calm Calm -- 30.24 in1024.0 mb - 0.00 in0.0 mm 0.00 in0.0 mm
10:30 AM 73.4°F23.0°C 60.5°F15.8°C 64% Calm Calm -- 30.24 in1024.0 mb - 0.00 in0.0 mm 0.00 in0.0 mm
10:40 AM 74.8°F23.8°C 60.5°F15.8°C 61% 4.6 mph SW7.4 kmh SW 6.9 mph11.1 kmh 30.24 in1024.0 mb - 0.00 in0.0 mm 0.00 in0.0 mm
10:50 AM 75.5°F24.2°C 59.7°F15.4°C 58% 4.6 mph SW7.4 kmh SW 4.6 mph7.4 kmh 30.24 in1024.0 mb - 0.00 in0.0 mm 0.00 in0.0 mm
11:00 AM 76.5°F24.7°C 59.2°F15.1°C 55% 2.3 mph SW3.7 kmh SW 5.8 mph9.3 kmh 30.23 in1023.7 mb - 0.00 in0.0 mm 0.00 in0.0 mm
11:10 AM 77.5°F25.3°C 59.1°F15.1°C 53% Calm Calm -- 30.23 in1023.7 mb - 0.00 in0.0 mm 0.00 in0.0 mm
11:20 AM 78.7°F25.9°C 60.7°F15.9°C 54% 1.1 mph SW1.8 kmh SW 2.3 mph3.7 kmh 30.23 in1023.7 mb - 0.00 in0.0 mm 0.00 in0.0 mm
11:30 AM 79.2°F26.2°C 62.7°F17.1°C 57% 1.1 mph SW1.8 kmh SW 2.3 mph3.7 kmh 30.23 in1023.7 mb - 0.00 in0.0 mm 0.00 in0.0 mm
11:40 AM 80.1°F26.7°C 62.5°F16.9°C 55% Calm Calm 3.5 mph5.6 kmh 30.23 in1023.7 mb - 0.00 in0.0 mm 0.00 in0.0 mm
11:50 AM 81.2°F27.3°C 63.5°F17.5°C 55% 1.1 mph S1.8 kmh S 3.5 mph5.6 kmh 30.22 in1023.4 mb - 0.00 in0.0 mm 0.00 in0.0 mm
12:00 PM 81.8°F27.7°C 63.0°F17.2°C 53% Calm Calm 1.1 mph1.8 kmh 30.22 in1023.4 mb - 0.00 in0.0 mm 0.00 in0.0 mm
12:10 PM 82.9°F28.3°C 63.5°F17.5°C 52% 1.1 mph S1.8 kmh S 3.5 mph5.6 kmh 30.21 in1023.0 mb - 0.00 in0.0 mm 0.00 in0.0 mm
12:20 PM 83.5°F28.6°C 61.7°F16.5°C 48% Calm Calm 1.1 mph1.8 kmh 30.21 in1023.0 mb - 0.00 in0.0 mm 0.00 in0.0 mm
12:30 PM 84.6°F29.2°C 58.3°F14.6°C 41% 1.1 mph NE1.8 kmh NE 3.5 mph5.6 kmh 30.21 in1023.0 mb - 0.00 in0.0 mm 0.00 in0.0 mm
12:40 PM 85.3°F29.6°C 59.6°F15.3°C 42% 1.1 mph NE1.8 kmh NE 3.5 mph5.6 kmh 30.21 in1023.0 mb - 0.00 in0.0 mm 0.00 in0.0 mm
12:50 PM 86.3°F30.2°C 53.8°F12.1°C 33% 4.6 mph N7.4 kmh N 8.1 mph13.0 kmh 30.21 in1023.0 mb - 0.00 in0.0 mm 0.00 in0.0 mm
01:00 PM 86.8°F30.4°C 48.8°F9.3°C 27% 1.1 mph NE1.8 kmh NE 1.1 mph1.8 kmh 30.21 in1023.0 mb - 0.00 in0.0 mm 0.00 in0.0 mm
01:10 PM 87.4°F30.8°C 50.3°F10.2°C 28% 4.6 mph E7.4 kmh E 4.6 mph7.4 kmh 30.20 in1022.7 mb - 0.00 in0.0 mm 0.00 in0.0 mm
01:20 PM 87.5°F30.8°C 51.3°F10.7°C 29% 1.1 mph E1.8 kmh E 2.3 mph3.7 kmh 30.20 in1022.7 mb - 0.00 in0.0 mm 0.00 in0.0 mm
01:30 PM 88.6°F31.4°C 46.1°F7.8°C 23% 5.8 mph N9.3 kmh N 8.1 mph13.0 kmh 30.20 in1022.7 mb - 0.00 in0.0 mm 0.00 in0.0 mm
01:40 PM 89.1°F31.7°C 49.7°F9.8°C 26% 1.1 mph NNW1.8 kmh NNW 2.3 mph3.7 kmh 30.20 in1022.7 mb - 0.00 in0.0 mm 0.00 in0.0 mm
01:50 PM 88.8°F31.6°C 51.5°F10.8°C 28% 1.1 mph N1.8 kmh N 2.3 mph3.7 kmh 30.19 in1022.4 mb - 0.00 in0.0 mm 0.00 in0.0 mm
02:00 PM 88.7°F31.5°C 53.3°F11.8°C 30% 5.8 mph NNE9.3 kmh NNE 9.2 mph14.8 kmh 30.19 in1022.4 mb - 0.00 in0.0 mm 0.00 in0.0 mm
02:10 PM 89.2°F31.8°C 54.6°F12.6°C 31% 4.6 mph N7.4 kmh N 6.9 mph11.1 kmh 30.19 in1022.4 mb - 0.00 in0.0 mm 0.00 in0.0 mm
02:20 PM 89.0°F31.7°C 52.6°F11.4°C 29% 3.5 mph WSW5.6 kmh WSW 5.8 mph9.3 kmh 30.19 in1022.4 mb - 0.00 in0.0 mm 0.00 in0.0 mm
02:30 PM 89.3°F31.8°C 52.9°F11.6°C 29% 1.1 mph W1.8 kmh W 8.1 mph13.0 kmh 30.19 in1022.4 mb - 0.00 in0.0 mm 0.00 in0.0 mm
02:40 PM 89.6°F32.0°C 53.1°F11.7°C 29% 3.5 mph SW5.6 kmh SW 5.8 mph9.3 kmh 30.18 in1022.0 mb - 0.00 in0.0 mm 0.00 in0.0 mm
02:50 PM 89.8°F32.1°C 53.3°F11.8°C 29% 1.1 mph WSW1.8 kmh WSW 2.3 mph3.7 kmh 30.18 in1022.0 mb - 0.00 in0.0 mm 0.00 in0.0 mm
03:00 PM 90.3°F32.4°C 54.7°F12.6°C 30% 4.6 mph SW7.4 kmh SW 8.1 mph13.0 kmh 30.18 in1022.0 mb - 0.00 in0.0 mm 0.00 in0.0 mm
03:10 PM 90.1°F32.3°C 55.4°F13.0°C 31% 3.5 mph E5.6 kmh E 4.6 mph7.4 kmh 30.18 in1022.0 mb - 0.00 in0.0 mm 0.00 in0.0 mm
03:20 PM 89.4°F31.9°C 54.7°F12.6°C 31% 3.5 mph W5.6 kmh W 5.8 mph9.3 kmh 30.18 in1022.0 mb - 0.00 in0.0 mm 0.00 in0.0 mm
03:30 PM 89.3°F31.8°C 57.3°F14.1°C 34% Calm Calm 2.3 mph3.7 kmh 30.17 in1021.7 mb - 0.00 in0.0 mm 0.00 in0.0 mm
03:40 PM 89.4°F31.9°C 58.1°F14.5°C 35% 3.5 mph NE5.6 kmh NE 4.6 mph7.4 kmh 30.17 in1021.7 mb - 0.00 in0.0 mm 0.00 in0.0 mm
03:50 PM 89.2°F31.8°C 57.9°F14.4°C 35% 9.2 mph NE14.8 kmh NE 15.0 mph24.1 kmh 30.18 in1022.0 mb - 0.00 in0.0 mm 0.00 in0.0 mm
04:00 PM 88.2°F31.2°C 58.6°F14.8°C 37% 12.7 mph NE20.4 kmh NE 16.1 mph25.9 kmh 30.18 in1022.0 mb - 0.00 in0.0 mm 0.00 in0.0 mm
04:10 PM 87.4°F30.8°C 57.2°F14.0°C 36% 12.7 mph NE20.4 kmh NE 15.0 mph24.1 kmh 30.18 in1022.0 mb - 0.00 in0.0 mm 0.00 in0.0 mm
04:20 PM 87.2°F30.7°C 57.0°F13.9°C 36% 11.5 mph NE18.5 kmh NE 13.8 mph22.2 kmh 30.18 in1022.0 mb - 0.00 in0.0 mm 0.00 in0.0 mm
04:30 PM 86.7°F30.4°C 56.6°F13.7°C 36% 9.2 mph ENE14.8 kmh ENE 12.7 mph20.4 kmh 30.18 in1022.0 mb - 0.00 in0.0 mm 0.00 in0.0 mm
04:40 PM 86.5°F30.3°C 54.8°F12.7°C 34% 10.4 mph NE16.7 kmh NE 15.0 mph24.1 kmh 30.18 in1022.0 mb - 0.00 in0.0 mm 0.00 in0.0 mm
04:50 PM 86.3°F30.2°C 54.6°F12.6°C 34% 11.5 mph NE18.5 kmh NE 12.7 mph20.4 kmh 30.18 in1022.0 mb - 0.00 in0.0 mm 0.00 in0.0 mm
05:00 PM 86.2°F30.1°C 56.9°F13.8°C 37% 10.4 mph NE16.7 kmh NE 11.5 mph18.5 kmh 30.18 in1022.0 mb - 0.00 in0.0 mm 0.00 in0.0 mm
05:10 PM 85.8°F29.9°C 60.0°F15.6°C 42% 9.2 mph NE14.8 kmh NE 12.7 mph20.4 kmh 30.18 in1022.0 mb - 0.00 in0.0 mm 0.00 in0.0 mm
05:20 PM 85.3°F29.6°C 61.6°F16.4°C 45% 10.4 mph NE16.7 kmh NE 15.0 mph24.1 kmh 30.18 in1022.0 mb - 0.00 in0.0 mm 0.00 in0.0 mm
05:30 PM 84.7°F29.3°C 60.3°F15.7°C 44% 9.2 mph NE14.8 kmh NE 13.8 mph22.2 kmh 30.18 in1022.0 mb - 0.00 in0.0 mm 0.00 in0.0 mm
05:40 PM 84.1°F28.9°C 59.2°F15.1°C 43% 10.4 mph NE16.7 kmh NE 18.4 mph29.6 kmh 30.18 in1022.0 mb - 0.00 in0.0 mm 0.00 in0.0 mm
05:50 PM 83.6°F28.7°C 59.4°F15.2°C 44% 11.5 mph NE18.5 kmh NE 16.1 mph25.9 kmh 30.18 in1022.0 mb - 0.00 in0.0 mm 0.00 in0.0 mm
06:00 PM 83.2°F28.4°C 59.7°F15.4°C 45% 9.2 mph NE14.8 kmh NE 16.1 mph25.9 kmh 30.19 in1022.4 mb - 0.00 in0.0 mm 0.00 in0.0 mm
06:10 PM 82.9°F28.3°C 60.0°F15.6°C 46% 8.1 mph NE13.0 kmh NE 15.0 mph24.1 kmh 30.19 in1022.4 mb - 0.00 in0.0 mm 0.00 in0.0 mm
06:20 PM 82.5°F28.1°C 59.6°F15.3°C 46% 9.2 mph NE14.8 kmh NE 11.5 mph18.5 kmh 30.19 in1022.4 mb - 0.00 in0.0 mm 0.00 in0.0 mm
06:30 PM 82.1°F27.8°C 59.9°F15.5°C 47% 11.5 mph NE18.5 kmh NE 16.1 mph25.9 kmh 30.20 in1022.7 mb - 0.00 in0.0 mm 0.00 in0.0 mm
06:40 PM 81.7°F27.6°C 60.1°F15.6°C 48% 8.1 mph NE13.0 kmh NE 11.5 mph18.5 kmh 30.20 in1022.7 mb - 0.00 in0.0 mm 0.00 in0.0 mm
06:50 PM 81.3°F27.4°C 59.7°F15.4°C 48% 10.4 mph NE16.7 kmh NE 12.7 mph20.4 kmh 30.20 in1022.7 mb - 0.00 in0.0 mm 0.00 in0.0 mm
07:00 PM 80.7°F27.1°C 59.2°F15.1°C 48% 12.7 mph NE20.4 kmh NE 16.1 mph25.9 kmh 30.20 in1022.7 mb - 0.00 in0.0 mm 0.00 in0.0 mm
07:10 PM 80.3°F26.8°C 58.8°F14.9°C 48% 10.4 mph NE16.7 kmh NE 15.0 mph24.1 kmh 30.20 in1022.7 mb - 0.00 in0.0 mm 0.00 in0.0 mm
07:20 PM 80.0°F26.7°C 58.5°F14.7°C 48% 8.1 mph NE13.0 kmh NE 9.2 mph14.8 kmh 30.20 in1022.7 mb - 0.00 in0.0 mm 0.00 in0.0 mm
07:30 PM 79.4°F26.3°C 59.1°F15.1°C 50% 5.8 mph ENE9.3 kmh ENE 11.5 mph18.5 kmh 30.21 in1023.0 mb - 0.00 in0.0 mm 0.00 in0.0 mm
07:40 PM 78.4°F25.8°C 59.3°F15.2°C 52% 8.1 mph E13.0 kmh E 11.5 mph18.5 kmh 30.21 in1023.0 mb - 0.00 in0.0 mm 0.00 in0.0 mm
07:50 PM 77.9°F25.5°C 59.9°F15.5°C 54% 8.1 mph E13.0 kmh E 12.7 mph20.4 kmh 30.21 in1023.0 mb - 0.00 in0.0 mm 0.00 in0.0 mm
08:00 PM 77.6°F25.3°C 60.2°F15.7°C 55% 5.8 mph E9.3 kmh E 8.1 mph13.0 kmh 30.21 in1023.0 mb - 0.00 in0.0 mm 0.00 in0.0 mm
08:10 PM 77.2°F25.1°C 60.3°F15.7°C 56% 9.2 mph E14.8 kmh E 10.4 mph16.7 kmh 30.21 in1023.0 mb - 0.00 in0.0 mm 0.00 in0.0 mm
08:20 PM 76.9°F24.9°C 60.5°F15.8°C 57% 4.6 mph NE7.4 kmh NE 4.6 mph7.4 kmh 30.22 in1023.4 mb - 0.00 in0.0 mm 0.00 in0.0 mm
08:30 PM 76.4°F24.7°C 60.0°F15.6°C 57% 5.8 mph ENE9.3 kmh ENE 8.1 mph13.0 kmh 30.23 in1023.7 mb - 0.00 in0.0 mm 0.00 in0.0 mm
08:40 PM 76.0°F24.4°C 60.6°F15.9°C 59% 6.9 mph ENE11.1 kmh ENE 8.1 mph13.0 kmh 30.23 in1023.7 mb - 0.00 in0.0 mm 0.00 in0.0 mm
08:50 PM 75.5°F24.2°C 61.1°F16.2°C 61% 5.8 mph NE9.3 kmh NE 6.9 mph11.1 kmh 30.23 in1023.7 mb - 0.00 in0.0 mm 0.00 in0.0 mm
09:00 PM 74.9°F23.8°C 61.5°F16.4°C 63% 8.1 mph ENE13.0 kmh ENE 11.5 mph18.5 kmh 30.23 in1023.7 mb - 0.00 in0.0 mm 0.00 in0.0 mm
09:10 PM 74.8°F23.8°C 61.8°F16.6°C 64% 6.9 mph NE11.1 kmh NE 10.4 mph16.7 kmh 30.24 in1024.0 mb - 0.00 in0.0 mm 0.00 in0.0 mm
09:20 PM 74.3°F23.5°C 63.1°F17.3°C 68% 11.5 mph NE18.5 kmh NE 19.6 mph31.5 kmh 30.24 in1024.0 mb - 0.00 in0.0 mm 0.00 in0.0 mm
09:30 PM 74.0°F23.3°C 63.6°F17.6°C 70% 9.2 mph NE14.8 kmh NE 11.5 mph18.5 kmh 30.24 in1024.0 mb - 0.00 in0.0 mm 0.00 in0.0 mm
09:40 PM 73.5°F23.1°C 63.5°F17.5°C 71% 8.1 mph NE13.0 kmh NE 11.5 mph18.5 kmh 30.24 in1024.0 mb - 0.00 in0.0 mm 0.00 in0.0 mm
09:50 PM 73.1°F22.8°C 63.5°F17.5°C 72% 10.4 mph NE16.7 kmh NE 12.7 mph20.4 kmh 30.24 in1024.0 mb - 0.00 in0.0 mm 0.00 in0.0 mm
10:00 PM 72.7°F22.6°C 63.5°F17.5°C 73% 9.2 mph NE14.8 kmh NE 13.8 mph22.2 kmh 30.24 in1024.0 mb - 0.00 in0.0 mm 0.00 in0.0 mm
10:10 PM 72.4°F22.4°C 64.0°F17.8°C 75% 10.4 mph NE16.7 kmh NE 12.7 mph20.4 kmh 30.24 in1024.0 mb - 0.00 in0.0 mm 0.00 in0.0 mm
10:20 PM 72.3°F22.4°C 63.9°F17.7°C 75% 11.5 mph NE18.5 kmh NE 15.0 mph24.1 kmh 30.24 in1024.0 mb - 0.00 in0.0 mm 0.00 in0.0 mm
10:30 PM 72.0°F22.2°C 64.1°F17.8°C 76% 12.7 mph NE20.4 kmh NE 19.6 mph31.5 kmh 30.25 in1024.4 mb - 0.00 in0.0 mm 0.00 in0.0 mm
10:40 PM 71.7°F22.1°C 64.1°F17.8°C 77% 11.5 mph NE18.5 kmh NE 16.1 mph25.9 kmh 30.25 in1024.4 mb - 0.00 in0.0 mm 0.00 in0.0 mm
10:50 PM 71.3°F21.8°C 63.7°F17.6°C 77% 10.4 mph NE16.7 kmh NE 12.7 mph20.4 kmh 30.24 in1024.0 mb - 0.00 in0.0 mm 0.00 in0.0 mm
11:00 PM 70.9°F21.6°C 63.7°F17.6°C 78% 12.7 mph NE20.4 kmh NE 19.6 mph31.5 kmh 30.24 in1024.0 mb - 0.00 in0.0 mm 0.00 in0.0 mm
11:10 PM 70.5°F21.4°C 63.7°F17.6°C 79% 11.5 mph NE18.5 kmh NE 18.4 mph29.6 kmh 30.24 in1024.0 mb - 0.00 in0.0 mm 0.00 in0.0 mm
11:20 PM 70.2°F21.2°C 63.7°F17.6°C 80% 10.4 mph NE16.7 kmh NE 13.8 mph22.2 kmh 30.24 in1024.0 mb - 0.00 in0.0 mm 0.00 in0.0 mm
11:30 PM 69.9°F21.1°C 63.4°F17.4°C 80% 9.2 mph NE14.8 kmh NE 12.7 mph20.4 kmh 30.25 in1024.4 mb - 0.00 in0.0 mm 0.00 in0.0 mm
11:40 PM 69.7°F20.9°C 63.6°F17.6°C 81% 8.1 mph NE13.0 kmh NE 13.8 mph22.2 kmh 30.25 in1024.4 mb - 0.00 in0.0 mm 0.00 in0.0 mm
11:50 PM 69.4°F20.8°C 63.4°F17.4°C 81% 8.1 mph NE13.0 kmh NE 13.8 mph22.2 kmh 30.25 in1024.4 mb - 0.00 in0.0 mm 0.00 in0.0 mm